Womac, Illinois
Current Conditions -  °F | °C
As of 5:35 AM on Tuesday 21 Oct 2014 (Local Time) from K3LF Reporting Station
Clear Clear  
Wind Chill: 39°   Ceiling: Unl
Heat Index: 42°   Visibility: 10mi
Dew Point: 39°   Wind: 5mph
Humidity: 91%   Direction: 340°NNW
Pressure: 30.05"   Gusts: NA
Location:  39.2714°N, 89.9463°W
Report Text: K3LF 211035Z AUTO 34004KT 10SM CLR 05/04 A3005 RMK AO2 T00540040
Loading
Personal Weather Stations






























Interactive Weather Map
Tropical Storm Tracking
New forecast layout! Learn more

10-Day Weather Forecast

Advertisements
Track Severe Weather on mobile